Time;durP1;ratioP1;P1;durP2;ratioP2;P2;SDS_P1;SDS_P2;PMS_P1;PMS_P2;Temp;Humidity;BMP_temperature;BMP_pressure;BME280_temperature;BME280_humidity;BME280_pressure;Samples;Min_cycle;Max_cycle;Signal;HPM_P1;HPM_P2
2023/11/02 00:03:05;;;;;;;12.10;8.10;;;;;;;10.05;68.99;98198.48;234224;215;139453;-57
2023/11/02 00:08:10;;;;;;;13.90;8.30;;;;;;;10.03;68.88;98198.07;234276;215;149415;-56
2023/11/02 00:13:39;;;;;;;18.70;8.90;;;;;;;9.98;68.95;98200.02;234314;215;140212;-54
2023/11/02 00:18:43;;;;;;;17.20;8.70;;;;;;;9.91;68.76;98195.77;234349;215;139847;-58
2023/11/02 00:23:47;;;;;;;12.90;8.50;;;;;;;9.81;68.72;98198.08;234220;215;149836;-54
2023/11/02 00:28:50;;;;;;;18.30;9.10;;;;;;;9.75;68.81;98199.05;234239;215;139953;-56
2023/11/02 00:33:54;;;;;;;14.40;9.10;;;;;;;9.71;68.87;98197.01;233958;215;137385;-54
2023/11/02 00:38:58;;;;;;;13.30;7.90;;;;;;;9.64;68.83;98190.61;234285;215;149982;-53
2023/11/02 00:44:01;;;;;;;12.10;8.20;;;;;;;9.56;68.91;98185.35;233911;215;139275;-54
2023/11/02 00:49:04;;;;;;;15.20;8.20;;;;;;;9.48;69.19;98177.81;234279;215;138385;-55
2023/11/02 00:54:42;;;;;;;14.70;8.10;;;;;;;9.41;69.33;98170.10;234328;215;150558;-53
2023/11/02 00:59:46;;;;;;;13.10;7.70;;;;;;;9.39;69.44;98150.60;234250;215;138663;-51
2023/11/02 01:04:54;;;;;;;13.60;7.80;;;;;;;9.38;69.19;98149.09;234276;215;138346;-55
2023/11/02 01:10:02;;;;;;;12.90;7.70;;;;;;;9.38;69.14;98145.59;234388;215;149428;-56
2023/11/02 01:15:11;;;;;;;12.00;7.40;;;;;;;9.43;69.19;98133.02;234256;215;141015;-53
2023/11/02 01:20:39;;;;;;;14.10;7.30;;;;;;;9.39;69.19;98128.27;234351;215;138047;-54
2023/11/02 01:25:49;;;;;;;11.80;7.90;;;;;;;9.39;69.28;98127.65;234267;215;150032;-52
2023/11/02 01:31:14;;;;;;;11.90;7.40;;;;;;;9.37;69.32;98127.23;234093;215;140000;-53
2023/11/02 01:36:26;;;;;;;9.70;6.50;;;;;;;9.33;69.33;98126.64;233654;215;137301;-54
2023/11/02 01:41:44;;;;;;;12.30;7.10;;;;;;;9.24;69.32;98119.98;234245;215;149531;-53
2023/11/02 01:47:22;;;;;;;10.90;7.30;;;;;;;9.16;69.36;98111.41;234247;215;139416;-54
2023/11/02 01:52:32;;;;;;;10.80;6.40;;;;;;;9.06;69.70;98115.68;234270;215;137122;-54
2023/11/02 01:57:53;;;;;;;7.90;5.50;;;;;;;9.05;69.91;98112.91;233709;215;150328;-55
2023/11/02 02:03:30;;;;;;;10.70;6.10;;;;;;;9.10;69.96;98103.89;234198;215;138700;-52
2023/11/02 02:08:49;;;;;;;9.10;6.20;;;;;;;9.12;69.83;98099.27;234170;215;137033;-51
2023/11/02 02:14:09;;;;;;;11.00;7.00;;;;;;;9.16;69.67;98091.21;234386;215;150479;-57
2023/11/02 02:19:50;;;;;;;10.20;6.30;;;;;;;9.15;69.74;98090.22;233527;215;139862;-52
2023/11/02 02:25:03;;;;;;;12.10;5.90;;;;;;;9.10;69.80;98082.81;234288;215;137547;-50
2023/11/02 02:30:31;;;;;;;10.40;6.50;;;;;;;9.05;69.77;98081.00;234255;215;151982;-55
2023/11/02 02:36:02;;;;;;;9.60;6.10;;;;;;;8.99;69.89;98074.88;233985;215;140730;-51
2023/11/02 02:41:09;;;;;;;16.20;7.20;;;;;;;8.96;69.95;98074.42;234230;215;138046;-51
2023/11/02 02:46:16;;;;;;;9.50;5.70;;;;;;;8.90;69.75;98065.98;234280;215;149304;-52
2023/11/02 02:51:20;;;;;;;12.70;6.30;;;;;;;8.84;69.97;98067.30;234337;215;138874;-49
2023/11/02 02:56:25;;;;;;;7.90;5.60;;;;;;;8.81;70.21;98064.34;234276;216;139073;-51
2023/11/02 03:01:35;;;;;;;13.30;6.20;;;;;;;8.87;70.30;98061.11;234314;215;149521;-53
2023/11/02 03:06:43;;;;;;;9.70;5.90;;;;;;;8.95;70.11;98049.71;234196;215;140012;-49
2023/11/02 03:11:53;;;;;;;9.70;6.00;;;;;;;8.97;70.09;98044.95;234208;216;137929;-51
2023/11/02 03:17:22;;;;;;;10.70;5.80;;;;;;;8.95;70.03;98038.92;234217;216;149379;-50
2023/11/02 03:22:26;;;;;;;8.10;5.50;;;;;;;8.90;70.01;98037.33;234184;215;140554;-53
2023/11/02 03:27:47;;;;;;;10.20;5.70;;;;;;;8.84;70.05;98028.45;234412;216;138761;-55
2023/11/02 03:33:18;;;;;;;11.20;5.70;;;;;;;8.82;70.32;98022.72;234206;215;149233;-52
2023/11/02 03:38:45;;;;;;;233.00;201.10;;;;;;;8.79;70.83;98015.36;234134;215;139000;-59
2023/11/02 03:44:00;;;;;;;67.40;49.30;;;;;;;8.88;70.82;98013.27;234000;216;137900;-58
2023/11/02 03:49:22;;;;;;;8.80;6.00;;;;;;;8.90;70.39;98012.21;233778;215;149527;-58
2023/11/02 03:54:38;;;;;;;94.90;79.10;;;;;;;8.91;70.12;98012.17;233850;215;139681;-55
2023/11/02 03:59:58;;;;;;;155.50;115.20;;;;;;;8.99;70.02;98009.45;234276;216;137888;-52
2023/11/02 04:05:19;;;;;;;9.40;6.00;;;;;;;9.04;70.23;98005.07;234090;216;149682;-55
2023/11/02 04:10:25;;;;;;;10.70;5.30;;;;;;;8.99;69.83;98000.60;234220;215;138943;-52
2023/11/02 04:15:28;;;;;;;278.50;201.30;;;;;;;8.96;70.35;97989.33;234451;215;137933;-48
2023/11/02 04:20:32;;;;;;;15.70;8.00;;;;;;;9.01;70.23;97995.85;234265;215;149510;-52
2023/11/02 04:25:35;;;;;;;10.20;5.50;;;;;;;8.97;70.11;97980.91;234235;215;141810;-50
2023/11/02 04:30:38;;;;;;;8.10;5.10;;;;;;;8.94;70.17;97979.89;234298;215;138180;-53
2023/11/02 04:35:41;;;;;;;9.70;5.10;;;;;;;8.87;70.01;97968.22;234300;215;149165;-52
2023/11/02 04:40:44;;;;;;;8.40;4.70;;;;;;;8.78;70.07;97963.73;234235;215;138892;-48
2023/11/02 04:45:48;;;;;;;11.20;5.80;;;;;;;8.75;70.30;97959.19;234390;215;137747;-47
2023/11/02 04:50:55;;;;;;;12.50;6.70;;;;;;;8.78;70.24;97956.31;234291;215;149005;-50
2023/11/02 04:55:58;;;;;;;13.90;6.60;;;;;;;8.81;70.02;97955.60;234201;215;139001;-50
2023/11/02 05:01:01;;;;;;;15.10;6.30;;;;;;;8.77;69.91;97954.23;234172;215;138223;-55
2023/11/02 05:06:05;;;;;;;93.20;65.20;;;;;;;8.78;70.33;97955.41;234230;215;149192;-51
2023/11/02 05:11:08;;;;;;;23.50;8.50;;;;;;;8.84;69.86;97950.06;234302;215;138776;-48
2023/11/02 05:16:11;;;;;;;17.00;7.80;;;;;;;8.79;69.70;97944.39;234274;215;137043;-54
2023/11/02 05:21:15;;;;;;;11.20;6.60;;;;;;;8.75;69.69;97926.09;234430;215;149719;-51
2023/11/02 05:26:18;;;;;;;7.60;5.10;;;;;;;8.79;69.90;97918.79;234222;215;138664;-54
2023/11/02 05:31:21;;;;;;;6.80;5.00;;;;;;;8.81;70.08;97910.80;234288;215;137562;-52
2023/11/02 05:36:25;;;;;;;9.50;5.00;;;;;;;8.84;69.91;97903.52;234282;215;149218;-52
2023/11/02 05:41:28;;;;;;;10.00;5.00;;;;;;;8.81;69.68;97901.61;234300;215;138833;-51
2023/11/02 05:46:32;;;;;;;8.90;4.90;;;;;;;8.81;69.77;97905.86;234274;215;139478;-51
2023/11/02 05:51:35;;;;;;;14.40;4.70;;;;;;;8.87;69.88;97907.76;234444;215;149686;-53
2023/11/02 05:56:38;;;;;;;6.60;4.50;;;;;;;9.01;69.89;97907.92;234195;215;138990;-54
2023/11/02 06:01:41;;;;;;;7.10;4.40;;;;;;;9.04;70.01;97904.91;234334;215;138697;-53
2023/11/02 06:06:44;;;;;;;12.00;5.20;;;;;;;9.07;70.18;97898.66;234348;215;149328;-53
2023/11/02 06:11:48;;;;;;;7.90;4.30;;;;;;;9.11;70.03;97893.39;234239;215;139477;-49
2023/11/02 06:16:51;;;;;;;8.00;4.50;;;;;;;9.13;70.01;97889.38;234393;215;138670;-51
2023/11/02 06:21:54;;;;;;;9.40;4.70;;;;;;;9.19;70.20;97892.66;234273;215;149866;-54
2023/11/02 06:26:58;;;;;;;9.70;4.20;;;;;;;9.23;70.30;97888.26;234301;215;139107;-55
2023/11/02 06:32:01;;;;;;;8.20;3.40;;;;;;;9.22;70.37;97883.16;234190;215;137485;-54
2023/11/02 06:37:08;;;;;;;6.40;3.70;;;;;;;9.28;70.48;97874.84;234006;215;149294;-52
2023/11/02 06:42:12;;;;;;;6.90;3.70;;;;;;;9.37;70.60;97871.27;234187;215;139398;-51
2023/11/02 06:47:15;;;;;;;7.80;4.00;;;;;;;9.49;70.36;97863.42;234228;215;137327;-49
2023/11/02 06:52:19;;;;;;;6.70;4.20;;;;;;;9.59;70.25;97864.95;234225;215;149113;-56
2023/11/02 06:57:22;;;;;;;6.70;4.20;;;;;;;9.67;70.05;97861.14;234353;216;140374;-53
2023/11/02 07:02:25;;;;;;;7.40;3.80;;;;;;;9.75;70.11;97861.24;234337;216;138658;-53
2023/11/02 07:07:29;;;;;;;10.40;3.60;;;;;;;9.80;69.99;97865.64;234334;215;149047;-51
2023/11/02 07:12:32;;;;;;;12.60;3.70;;;;;;;9.85;69.99;97868.96;234336;216;138825;-51
2023/11/02 07:17:36;;;;;;;5.40;3.30;;;;;;;9.90;70.05;97852.48;234168;215;138678;-53
2023/11/02 07:22:39;;;;;;;9.50;2.90;;;;;;;9.95;70.23;97844.67;234230;216;150335;-54
2023/11/02 07:27:42;;;;;;;5.70;3.20;;;;;;;9.97;70.15;97842.37;234279;215;143584;-55
2023/11/02 07:32:45;;;;;;;9.20;3.80;;;;;;;10.02;70.17;97839.11;234246;215;137713;-53
2023/11/02 07:37:49;;;;;;;9.10;3.10;;;;;;;10.14;70.30;97837.46;234242;215;149441;-52
2023/11/02 07:42:52;;;;;;;7.00;3.50;;;;;;;10.27;70.17;97822.11;234306;215;140253;-52
2023/11/02 07:47:56;;;;;;;6.60;4.20;;;;;;;10.37;70.07;97815.98;234304;215;139218;-52
2023/11/02 07:52:59;;;;;;;10.80;4.20;;;;;;;10.50;70.12;97806.99;234163;215;150154;-52
2023/11/02 07:58:02;;;;;;;12.00;4.00;;;;;;;10.59;70.13;97802.44;234276;215;139171;-55
2023/11/02 08:03:06;;;;;;;10.00;4.20;;;;;;;10.70;70.15;97791.45;234181;215;138608;-56
2023/11/02 08:08:09;;;;;;;348.90;248.70;;;;;;;10.77;70.21;97783.25;234238;215;149187;-54
2023/11/02 08:13:12;;;;;;;25.20;14.90;;;;;;;10.92;70.60;97774.70;234069;215;139119;-55
2023/11/02 08:18:17;;;;;;;9.10;3.90;;;;;;;11.09;70.63;97763.76;234185;215;138598;-50
2023/11/02 08:23:20;;;;;;;10.80;3.80;;;;;;;11.25;70.63;97755.77;234173;215;150614;-54
2023/11/02 08:28:23;;;;;;;10.10;3.80;;;;;;;11.45;70.68;97747.52;234098;215;140244;-52
2023/11/02 08:33:29;;;;;;;8.60;3.40;;;;;;;11.70;70.25;97749.04;234171;215;137503;-54
2023/11/02 08:38:32;;;;;;;38.30;20.90;;;;;;;12.03;69.87;97749.60;234081;215;149253;-54
2023/11/02 08:43:35;;;;;;;6.40;3.90;;;;;;;12.28;68.71;97740.42;234067;215;140096;-55
2023/11/02 08:48:39;;;;;;;7.90;3.50;;;;;;;12.47;67.79;97728.40;234082;215;139202;-55
2023/11/02 08:53:42;;;;;;;11.30;3.50;;;;;;;12.58;67.02;97718.85;233983;215;149903;-55
2023/11/02 08:58:50;;;;;;;8.80;3.90;;;;;;;12.63;66.90;97711.41;234149;215;138966;-50
2023/11/02 09:03:57;;;;;;;15.40;7.70;;;;;;;12.71;66.78;97717.67;234241;215;138358;-54
2023/11/02 09:09:01;;;;;;;9.50;4.40;;;;;;;12.81;66.87;97713.66;234155;215;149246;-55
2023/11/02 09:14:04;;;;;;;13.80;4.20;;;;;;;12.94;66.88;97702.52;234154;215;140099;-53
2023/11/02 09:19:07;;;;;;;6.80;3.10;;;;;;;13.07;66.66;97698.10;234138;215;138625;-52
2023/11/02 09:24:11;;;;;;;7.70;2.40;;;;;;;13.27;65.87;97692.86;234130;215;150428;-52
2023/11/02 09:29:16;;;;;;;8.20;2.90;;;;;;;13.47;65.39;97682.77;234108;215;139780;-51
2023/11/02 09:34:20;;;;;;;6.90;2.70;;;;;;;13.68;64.57;97675.19;233926;215;137393;-51
2023/11/02 09:39:23;;;;;;;5.80;2.30;;;;;;;13.84;63.45;97665.59;234212;215;149457;-51
2023/11/02 09:44:27;;;;;;;4.20;2.10;;;;;;;14.00;62.96;97664.20;234137;215;138890;-52
2023/11/02 09:49:30;;;;;;;4.40;2.00;;;;;;;14.18;62.19;97654.62;234097;215;137407;-49
2023/11/02 09:54:34;;;;;;;5.20;1.90;;;;;;;14.40;61.65;97647.40;234191;215;150620;-53
2023/11/02 09:59:51;;;;;;;8.20;2.00;;;;;;;14.58;61.11;97639.83;234147;215;138807;-50
2023/11/02 10:04:54;;;;;;;5.50;1.70;;;;;;;14.76;60.34;97627.79;234244;215;138863;-52
2023/11/02 10:09:57;;;;;;;4.40;1.60;;;;;;;14.95;60.03;97622.99;234274;215;149203;-54
2023/11/02 10:15:04;;;;;;;4.70;1.60;;;;;;;15.14;59.21;97617.04;234132;215;140815;-49
2023/11/02 10:20:17;;;;;;;3.90;1.60;;;;;;;15.28;59.01;97608.81;234139;215;137315;-51
2023/11/02 10:25:20;;;;;;;2.50;1.40;;;;;;;15.42;58.81;97591.79;234138;215;149174;-51
2023/11/02 10:30:25;;;;;;;4.00;1.60;;;;;;;15.60;58.20;97582.74;233969;215;138726;-51
2023/11/02 10:35:28;;;;;;;3.00;1.50;;;;;;;15.73;57.63;97574.58;234135;215;137211;-52
2023/11/02 10:40:45;;;;;;;2.40;1.10;;;;;;;15.92;57.11;97558.06;234261;215;150125;-52
2023/11/02 10:45:52;;;;;;;2.10;1.10;;;;;;;16.16;56.04;97542.30;234221;215;138791;-49
2023/11/02 10:50:58;;;;;;;124.90;91.40;;;;;;;16.41;55.44;97532.73;234113;215;137700;-52
2023/11/02 10:56:12;;;;;;;4.40;1.70;;;;;;;16.67;55.42;97521.38;234228;215;149867;-52
2023/11/02 11:01:17;;;;;;;2.10;1.20;;;;;;;16.95;54.28;97512.06;234124;215;139266;-53
2023/11/02 11:06:23;;;;;;;6.20;1.00;;;;;;;17.12;53.43;97497.95;234113;215;138504;-49
2023/11/02 11:11:29;;;;;;;3.00;1.00;;;;;;;17.29;52.65;97501.17;234182;216;149532;-50
2023/11/02 11:16:33;;;;;;;1.20;0.80;;;;;;;17.46;52.03;97491.64;233726;215;138742;-48
2023/11/02 11:21:41;;;;;;;1.60;0.80;;;;;;;17.64;50.74;97493.79;234357;215;138394;-50
2023/11/02 11:26:56;;;;;;;2.60;1.00;;;;;;;17.82;50.45;97489.86;234129;215;149968;-52
2023/11/02 11:31:59;;;;;;;1.40;0.70;;;;;;;18.01;49.78;97486.77;234225;215;139009;-53
2023/11/02 11:38:20;;;;;;;1.60;0.90;;;;;;;18.20;49.46;97484.89;234124;215;138457;-53
2023/11/02 11:43:13;;;;;;;3.10;1.10;;;;;;;18.36;49.04;97469.53;234263;215;150249;-48
2023/11/02 11:48:32;;;;;;;3.00;1.10;;;;;;;18.47;48.96;97465.15;234087;215;138663;-49
2023/11/02 11:53:39;;;;;;;2.60;1.10;;;;;;;18.55;48.75;97451.39;234227;215;138450;-52
2023/11/02 11:58:44;;;;;;;4.00;1.20;;;;;;;18.58;48.69;97444.27;234146;215;149343;-50
2023/11/02 12:03:48;;;;;;;3.90;1.30;;;;;;;18.56;48.17;97442.45;234298;215;138718;-50
2023/11/02 12:08:51;;;;;;;2.80;1.40;;;;;;;18.55;48.01;97438.00;233906;215;137731;-53
2023/11/02 12:13:58;;;;;;;2.30;1.10;;;;;;;18.50;47.27;97427.09;234252;215;149938;-52
2023/11/02 12:19:03;;;;;;;2.20;0.90;;;;;;;18.44;47.61;97416.95;234137;215;140105;-52
2023/11/02 12:24:10;;;;;;;1.20;0.90;;;;;;;18.38;47.62;97402.98;234193;215;139334;-50
2023/11/02 12:29:13;;;;;;;1.20;0.70;;;;;;;18.34;47.52;97395.75;234131;215;149925;-54
2023/11/02 12:34:18;;;;;;;1.90;1.10;;;;;;;18.29;47.78;97386.28;234239;215;139648;-51
2023/11/02 12:39:21;;;;;;;1.30;0.80;;;;;;;18.26;47.44;97370.94;234374;215;138504;-50
2023/11/02 12:44:26;;;;;;;4.10;1.00;;;;;;;18.18;47.54;97364.24;234098;216;150708;-54
2023/11/02 12:49:29;;;;;;;3.80;0.90;;;;;;;18.17;47.55;97353.82;234106;215;138667;-50
2023/11/02 12:54:32;;;;;;;1.20;0.80;;;;;;;18.12;47.40;97338.92;234165;215;138049;-50
2023/11/02 12:59:44;;;;;;;2.80;1.10;;;;;;;18.11;47.37;97331.61;234142;215;152689;-51
2023/11/02 13:04:53;;;;;;;2.40;1.00;;;;;;;18.09;47.27;97308.88;234090;215;140183;-52
2023/11/02 13:10:04;;;;;;;208.70;165.70;;;;;;;18.06;47.15;97307.98;234270;214;138337;-54
2023/11/02 13:15:09;;;;;;;2.80;1.40;;;;;;;18.06;47.42;97308.91;234086;215;151147;-52
2023/11/02 13:20:14;;;;;;;3.00;1.20;;;;;;;18.06;46.77;97317.29;234205;215;141716;-51
2023/11/02 13:25:18;;;;;;;3.60;1.10;;;;;;;18.03;46.72;97314.77;234104;215;139019;-54
2023/11/02 13:30:22;;;;;;;3.30;1.30;;;;;;;18.06;47.15;97307.80;234186;215;150918;-55
2023/11/02 13:35:26;;;;;;;3.90;1.10;;;;;;;18.03;46.72;97304.61;234110;215;138764;-55
2023/11/02 13:40:31;;;;;;;2.00;1.20;;;;;;;17.97;46.77;97312.14;234212;215;138380;-55
2023/11/02 13:45:35;;;;;;;3.40;1.50;;;;;;;17.90;46.93;97314.66;234202;215;151514;-52
2023/11/02 13:50:38;;;;;;;3.60;1.80;;;;;;;17.87;46.84;97316.71;234221;215;138850;-52
2023/11/02 13:55:41;;;;;;;4.00;1.70;;;;;;;17.83;46.84;97313.35;233840;215;138190;-52
2023/11/02 14:00:46;;;;;;;2.40;1.40;;;;;;;17.80;46.91;97302.83;234174;215;149249;-50
2023/11/02 14:05:51;;;;;;;2.80;1.20;;;;;;;17.75;46.96;97292.70;234220;215;139051;-53
2023/11/02 14:10:55;;;;;;;2.40;1.30;;;;;;;17.69;46.80;97285.81;234123;215;137272;-52
2023/11/02 14:15:59;;;;;;;5.50;1.10;;;;;;;17.67;46.95;97283.41;234328;215;150214;-53
2023/11/02 14:21:03;;;;;;;3.30;0.90;;;;;;;17.64;46.89;97279.58;234098;215;138649;-53
2023/11/02 14:26:06;;;;;;;2.50;1.10;;;;;;;17.60;46.99;97278.77;234173;215;137180;-54
2023/11/02 14:31:09;;;;;;;2.10;0.90;;;;;;;17.55;47.01;97278.85;234187;215;150004;-55
2023/11/02 14:36:17;;;;;;;3.10;1.20;;;;;;;17.49;47.39;97274.36;234048;216;138894;-52
2023/11/02 14:41:21;;;;;;;4.50;1.10;;;;;;;17.44;47.55;97267.79;234229;215;138026;-48
2023/11/02 14:46:24;;;;;;;4.20;1.30;;;;;;;17.34;47.49;97250.37;234061;215;149506;-52
2023/11/02 14:51:27;;;;;;;2.50;1.10;;;;;;;17.24;48.00;97242.85;234302;215;138588;-53
2023/11/02 14:56:30;;;;;;;6.30;1.80;;;;;;;17.22;48.26;97236.73;233533;215;139033;-55
2023/11/02 15:01:34;;;;;;;5.80;1.60;;;;;;;17.13;48.46;97241.34;234117;215;150067;-52
2023/11/02 15:06:37;;;;;;;4.10;1.90;;;;;;;17.01;48.45;97227.73;234192;215;139720;-54
2023/11/02 15:11:40;;;;;;;78.50;50.20;;;;;;;16.90;49.10;97207.52;234144;215;137988;-50
2023/11/02 15:16:44;;;;;;;5.00;2.00;;;;;;;16.81;49.40;97201.21;234136;215;149676;-50
2023/11/02 15:21:47;;;;;;;4.10;1.50;;;;;;;16.73;49.43;97193.03;234260;215;141021;-51
2023/11/02 15:26:51;;;;;;;4.00;1.60;;;;;;;16.63;49.70;97190.64;233535;216;137474;-53
2023/11/02 15:31:54;;;;;;;3.50;1.90;;;;;;;16.55;49.95;97186.80;234114;216;149947;-57
2023/11/02 15:36:58;;;;;;;7.90;1.90;;;;;;;16.44;50.05;97186.38;234113;215;138563;-53
2023/11/02 15:42:03;;;;;;;8.40;3.20;;;;;;;16.35;50.39;97185.23;234109;214;138277;-55
2023/11/02 15:47:06;;;;;;;8.10;3.50;;;;;;;16.27;50.73;97179.36;234109;215;149524;-56
2023/11/02 15:52:09;;;;;;;13.20;4.00;;;;;;;16.20;50.80;97166.26;234267;215;138653;-54
2023/11/02 15:57:14;;;;;;;10.00;4.00;;;;;;;16.11;50.99;97155.92;234196;215;138021;-55
2023/11/02 16:02:17;;;;;;;10.30;3.70;;;;;;;16.04;51.23;97160.58;234194;215;149396;-55
2023/11/02 16:07:22;;;;;;;11.90;3.70;;;;;;;15.98;51.35;97151.34;234118;215;140121;-53
2023/11/02 16:12:25;;;;;;;10.70;4.00;;;;;;;15.93;51.56;97156.94;234137;215;137844;-52
2023/11/02 16:17:28;;;;;;;9.10;4.20;;;;;;;15.86;51.59;97159.88;234189;215;149363;-56
2023/11/02 16:22:32;;;;;;;11.80;4.70;;;;;;;15.83;51.63;97165.23;234118;215;139060;-54
2023/11/02 16:27:35;;;;;;;13.60;4.70;;;;;;;15.79;51.70;97168.16;234260;215;138191;-51
2023/11/02 16:32:40;;;;;;;51.70;34.90;;;;;;;15.76;51.90;97167.53;234043;215;150119;-57
2023/11/02 16:37:43;;;;;;;14.40;6.10;;;;;;;15.72;52.09;97170.27;234058;215;139911;-53
2023/11/02 16:42:46;;;;;;;12.00;5.40;;;;;;;15.67;52.40;97166.55;234220;215;137755;-54
2023/11/02 16:47:50;;;;;;;10.10;4.50;;;;;;;15.55;52.72;97167.15;234180;215;149923;-54
2023/11/02 16:52:54;;;;;;;15.90;5.10;;;;;;;15.48;53.04;97159.33;234173;215;146546;-55
2023/11/02 16:57:57;;;;;;;10.80;4.80;;;;;;;15.42;53.32;97156.66;234208;215;137406;-55
2023/11/02 17:03:01;;;;;;;10.60;4.60;;;;;;;15.26;53.51;97159.86;234164;215;149642;-55
2023/11/02 17:08:04;;;;;;;19.80;4.70;;;;;;;15.10;54.00;97156.99;234173;215;232874;-54
2023/11/02 17:13:08;;;;;;;13.00;5.30;;;;;;;14.98;54.35;97150.16;234156;215;137609;-50
2023/11/02 17:18:11;;;;;;;17.00;5.70;;;;;;;14.90;54.58;97148.14;234163;215;149596;-53
2023/11/02 17:23:14;;;;;;;22.90;6.40;;;;;;;14.80;55.16;97145.77;234148;215;138641;-56
2023/11/02 17:28:18;;;;;;;13.90;5.80;;;;;;;14.71;55.58;97145.35;234139;215;138445;-51
2023/11/02 17:33:21;;;;;;;21.30;5.80;;;;;;;14.69;55.78;97140.64;234132;215;150341;-54
2023/11/02 17:38:24;;;;;;;12.80;5.40;;;;;;;14.67;55.93;97125.52;234237;215;138634;-54
2023/11/02 17:43:27;;;;;;;13.00;5.30;;;;;;;14.62;55.90;97116.41;234331;215;138122;-55
2023/11/02 17:48:31;;;;;;;17.50;6.70;;;;;;;14.56;56.06;97115.94;234005;215;150246;-55
2023/11/02 17:53:34;;;;;;;19.50;6.50;;;;;;;14.54;56.18;97112.97;234148;215;138730;-56
2023/11/02 17:58:38;;;;;;;19.20;6.80;;;;;;;14.52;56.46;97109.13;234160;215;137359;-52
2023/11/02 18:03:42;;;;;;;14.10;6.80;;;;;;;14.38;56.56;97114.33;234338;215;151732;-51
2023/11/02 18:08:45;;;;;;;20.90;7.40;;;;;;;14.27;57.03;97111.24;234247;215;138855;-53
2023/11/02 18:13:49;;;;;;;14.10;6.20;;;;;;;14.22;57.31;97098.23;234330;215;137665;-55
2023/11/02 18:18:53;;;;;;;15.00;6.50;;;;;;;14.26;57.29;97090.37;234174;215;150164;-51
2023/11/02 18:23:56;;;;;;;14.60;6.90;;;;;;;14.27;57.29;97090.71;234254;215;139509;-53
2023/11/02 18:29:01;;;;;;;17.50;6.80;;;;;;;14.21;57.37;97089.09;233813;215;137587;-55
2023/11/02 18:34:07;;;;;;;22.70;6.90;;;;;;;14.13;57.62;97086.14;233947;215;150395;-55
2023/11/02 18:39:10;;;;;;;13.20;6.10;;;;;;;14.05;57.69;97082.96;233495;215;139469;-55
2023/11/02 18:44:14;;;;;;;14.90;6.20;;;;;;;13.94;57.94;97080.74;233708;215;137736;-54
2023/11/02 18:49:17;;;;;;;15.70;4.60;;;;;;;13.89;58.04;97082.00;234221;215;150275;-54
2023/11/02 18:54:20;;;;;;;12.70;4.40;;;;;;;13.84;58.40;97084.64;234255;215;141259;-55
2023/11/02 18:59:23;;;;;;;13.00;5.00;;;;;;;13.81;58.46;97080.38;234078;215;139183;-52
2023/11/02 19:04:31;;;;;;;9.00;4.70;;;;;;;13.81;58.58;97077.88;233584;215;149468;-51
2023/11/02 19:09:34;;;;;;;10.90;4.40;;;;;;;13.77;58.61;97071.52;233823;215;139542;-56
2023/11/02 19:14:39;;;;;;;6.10;3.10;;;;;;;13.81;58.59;97065.40;234249;215;139702;-52
2023/11/02 19:19:42;;;;;;;10.60;3.20;;;;;;;13.92;58.38;97060.05;234313;215;149065;-50
2023/11/02 19:24:45;;;;;;;55.60;40.10;;;;;;;14.03;58.68;97063.51;234377;215;138934;-56
2023/11/02 19:29:49;;;;;;;11.00;3.50;;;;;;;14.18;57.81;97069.98;234218;215;138273;-51
2023/11/02 19:34:52;;;;;;;5.40;3.10;;;;;;;14.21;57.45;97073.95;234109;215;150013;-53
2023/11/02 19:39:55;;;;;;;10.60;3.10;;;;;;;14.24;57.34;97076.63;234396;215;138803;-56
2023/11/02 19:44:59;;;;;;;16.50;3.60;;;;;;;14.28;57.39;97065.65;234264;215;138146;-55
2023/11/02 19:50:03;;;;;;;6.60;2.90;;;;;;;14.24;57.47;97056.49;234247;215;149468;-51
2023/11/02 19:55:08;;;;;;;4.90;2.50;;;;;;;14.26;57.70;97041.64;234308;215;139562;-52
2023/11/02 20:00:13;;;;;;;5.40;3.30;;;;;;;14.27;57.76;97029.05;233443;215;138757;-52
2023/11/02 20:05:16;;;;;;;122.40;96.40;;;;;;;14.28;57.93;97028.17;233632;215;149359;-56
2023/11/02 20:10:21;;;;;;;12.40;4.00;;;;;;;14.37;58.12;97030.94;233507;215;140367;-55
2023/11/02 20:15:24;;;;;;;8.90;3.30;;;;;;;14.40;57.57;97037.43;234459;215;137300;-53
2023/11/02 20:20:29;;;;;;;9.00;3.20;;;;;;;14.37;57.45;97028.27;234309;215;149085;-56
2023/11/02 20:25:34;;;;;;;8.80;3.20;;;;;;;14.39;57.52;97030.70;234276;214;140357;-54
2023/11/02 20:30:38;;;;;;;7.60;2.90;;;;;;;14.43;57.34;97027.98;234203;215;137577;-56
2023/11/02 20:35:41;;;;;;;123.70;92.60;;;;;;;14.46;57.81;97023.79;233687;215;150127;-55
2023/11/02 20:40:44;;;;;;;13.10;6.60;;;;;;;14.56;57.82;97025.10;234250;215;233403;-56
2023/11/02 20:45:48;;;;;;;5.20;3.50;;;;;;;14.64;57.70;97019.83;233604;215;137426;-56
2023/11/02 20:50:51;;;;;;;5.70;2.90;;;;;;;14.68;57.81;97019.15;233752;215;149261;-51
2023/11/02 20:55:58;;;;;;;9.20;4.80;;;;;;;14.55;57.72;97008.42;233972;215;142144;-55
2023/11/02 21:01:03;;;;;;;10.90;4.90;;;;;;;14.38;58.16;97002.98;234054;215;137902;-51
2023/11/02 21:06:08;;;;;;;11.50;5.20;;;;;;;14.22;58.42;96988.73;234131;215;149071;-55
2023/11/02 21:11:22;;;;;;;11.80;5.60;;;;;;;14.05;58.51;96987.38;233262;215;139017;-51
2023/11/02 21:16:25;;;;;;;8.30;5.20;;;;;;;13.92;59.08;96988.05;234237;215;139282;-51
2023/11/02 21:21:28;;;;;;;11.60;5.60;;;;;;;13.79;59.63;96979.34;234103;215;149983;-54
2023/11/02 21:26:31;;;;;;;12.00;5.10;;;;;;;13.67;60.02;96979.86;234288;215;138748;-53
2023/11/02 21:31:34;;;;;;;11.40;5.20;;;;;;;13.60;60.25;96974.95;233783;215;137320;-55
2023/11/02 21:36:38;;;;;;;13.80;5.70;;;;;;;13.51;60.75;96967.02;234075;215;149300;-50
2023/11/02 21:41:42;;;;;;;12.80;7.30;;;;;;;13.45;60.92;96966.17;234286;215;138839;-52
2023/11/02 21:46:46;;;;;;;12.60;6.30;;;;;;;13.50;60.92;96964.27;234021;215;138044;-53
2023/11/02 21:51:49;;;;;;;12.60;5.20;;;;;;;13.57;60.91;96960.38;234518;215;149447;-57
2023/11/02 21:56:53;;;;;;;9.50;5.30;;;;;;;13.62;60.71;96953.70;234309;215;138612;-55
2023/11/02 22:01:56;;;;;;;9.10;4.60;;;;;;;13.70;60.67;96937.38;233643;215;137202;-56
2023/11/02 22:06:59;;;;;;;10.90;5.10;;;;;;;13.70;60.42;96926.65;234054;215;149328;-54
2023/11/02 22:12:03;;;;;;;10.20;5.10;;;;;;;13.72;60.41;96916.59;233723;215;139883;-56
2023/11/02 22:17:07;;;;;;;11.40;5.20;;;;;;;13.78;60.27;96910.98;234111;215;137715;-52
2023/11/02 22:22:11;;;;;;;9.60;4.10;;;;;;;13.81;60.04;96912.84;234601;215;149247;-51
2023/11/02 22:27:14;;;;;;;5.20;3.00;;;;;;;13.78;59.92;96918.64;234383;215;141549;-53
2023/11/02 22:32:18;;;;;;;3.40;2.30;;;;;;;13.86;59.77;96914.55;234129;215;138648;-55
2023/11/02 22:37:21;;;;;;;8.00;2.40;;;;;;;13.99;59.46;96906.95;234268;215;150990;-53
2023/11/02 22:42:25;;;;;;;4.70;2.60;;;;;;;14.09;59.18;96897.98;233927;215;139461;-55
2023/11/02 22:47:28;;;;;;;6.20;2.80;;;;;;;14.21;59.12;96892.83;233879;215;138386;-55
2023/11/02 22:52:32;;;;;;;3.70;2.30;;;;;;;14.29;58.82;96897.92;233672;215;149622;-52
2023/11/02 22:57:35;;;;;;;5.80;2.60;;;;;;;14.32;58.76;96889.36;234260;215;141377;-53
2023/11/02 23:02:39;;;;;;;5.30;2.30;;;;;;;14.37;58.80;96872.52;234001;215;138217;-50
2023/11/02 23:07:43;;;;;;;6.90;2.50;;;;;;;14.42;58.89;96865.55;234113;215;150515;-49
2023/11/02 23:12:47;;;;;;;5.30;2.40;;;;;;;14.39;59.01;96857.69;233890;215;138657;-51
2023/11/02 23:17:50;;;;;;;3.80;2.60;;;;;;;14.38;59.09;96858.91;234356;215;138731;-55
2023/11/02 23:22:53;;;;;;;7.70;2.60;;;;;;;14.40;59.07;96848.05;233813;215;150328;-50
2023/11/02 23:27:57;;;;;;;9.30;2.90;;;;;;;14.48;59.13;96840.45;234573;215;139013;-52
2023/11/02 23:33:00;;;;;;;5.80;2.60;;;;;;;14.52;59.15;96838.44;234167;215;137393;-56
2023/11/02 23:38:03;;;;;;;12.90;3.60;;;;;;;14.56;59.28;96836.91;233818;215;150478;-56
2023/11/02 23:43:07;;;;;;;10.70;3.40;;;;;;;14.57;59.21;96823.33;234302;215;139007;-55